Wetterdaten vom Montag, 01. Juni 2020

Temperatur Taupunkt Windchill Luftfeuchte Luftdruck Solarstrahlung Regen ET
(Verdunstung von Wasser)
Wind
Max 14.1 °C
00:00
6.7 °C
00:10
14.1 °C
00:00
78%
03:00
1017.7 hPa
00:10
0 W/m²
00:00
1.4 km/h
00:20 km/h
Durchschnitt 11.9 °C 6.4 °C 11.9 °C 70% 1017.5 hPa 0 W/m² 0 mm 0.076 mm 0 km/h
Min 9.4 °C
03:20
5.8 °C
03:20
9.4 °C
03:20
61%
00:00
1017.2 hPa
03:15
0 km/h (Böe)
00:00 km/h
Zeit
00:00 14.1 °C 6.7 °C 14.1 °C 61% 1017.6 hPa 0 W/m² 0.0 mm 0.000 mm 0.0 km/h
00:05 13.9 °C 6.5 °C 13.9 °C 61% 1017.6 hPa 0 W/m² 0.0 mm 0.000 mm 0.0 km/h
00:10 13.9 °C 6.7 °C 13.9 °C 62% 1017.7 hPa 0 W/m² 0.0 mm 0.000 mm 0.0 km/h
00:15 13.8 °C 6.6 °C 13.8 °C 62% 1017.7 hPa 0 W/m² 0.0 mm 0.000 mm 0.2 km/h
00:20 13.8 °C 6.6 °C 13.8 °C 62% 1017.6 hPa 0 W/m² 0.0 mm 0.000 mm 1.4 km/h
00:25 13.8 °C 6.6 °C 13.8 °C 62% 1017.6 hPa 0 W/m² 0.0 mm 0.000 mm 0.0 km/h
00:30 13.7 °C 6.6 °C 13.7 °C 62% 1017.6 hPa 0 W/m² 0.0 mm 0.000 mm 0.0 km/h
00:35 13.6 °C 6.7 °C 13.6 °C 63% 1017.7 hPa 0 W/m² 0.0 mm 0.000 mm 0.0 km/h
00:40 13.5 °C 6.6 °C 13.5 °C 63% 1017.7 hPa 0 W/m² 0.0 mm 0.000 mm 0.0 km/h
00:45 13.4 °C 6.7 °C 13.4 °C 64% 1017.7 hPa 0 W/m² 0.0 mm 0.000 mm 0.0 km/h
00:50 13.2 °C 6.5 °C 13.2 °C 64% 1017.5 hPa 0 W/m² 0.0 mm 0.000 mm 0.0 km/h
00:55 13.1 °C 6.7 °C 13.1 °C 65% 1017.5 hPa 0 W/m² 0.0 mm 0.000 mm 0.0 km/h
01:00 12.8 °C 6.4 °C 12.8 °C 65% 1017.6 hPa 0 W/m² 0.0 mm 0.000 mm 0.0 km/h
01:05 12.7 °C 6.5 °C 12.7 °C 66% 1017.6 hPa 0 W/m² 0.0 mm 0.025 mm 0.0 km/h
01:10 12.6 °C 6.4 °C 12.6 °C 66% 1017.6 hPa 0 W/m² 0.0 mm 0.000 mm 0.0 km/h
01:15 12.4 °C 6.4 °C 12.4 °C 67% 1017.7 hPa 0 W/m² 0.0 mm 0.000 mm 0.0 km/h
01:20 12.3 °C 6.6 °C 12.3 °C 68% 1017.7 hPa 0 W/m² 0.0 mm 0.000 mm 0.0 km/h
01:25 12.2 °C 6.7 °C 12.2 °C 69% 1017.7 hPa 0 W/m² 0.0 mm 0.000 mm 0.0 km/h
01:30 12.0 °C 6.5 °C 12.0 °C 69% 1017.6 hPa 0 W/m² 0.0 mm 0.000 mm 0.0 km/h
01:35 11.9 °C 6.4 °C 11.9 °C 69% 1017.6 hPa 0 W/m² 0.0 mm 0.000 mm 0.0 km/h
01:40 11.7 °C 6.4 °C 11.7 °C 70% 1017.6 hPa 0 W/m² 0.0 mm 0.000 mm 0.0 km/h
01:45 11.6 °C 6.3 °C 11.6 °C 70% 1017.6 hPa 0 W/m² 0.0 mm 0.000 mm 0.0 km/h
01:50 11.5 °C 6.4 °C 11.5 °C 71% 1017.5 hPa 0 W/m² 0.0 mm 0.000 mm 0.0 km/h
01:55 11.4 °C 6.5 °C 11.4 °C 72% 1017.4 hPa 0 W/m² 0.0 mm 0.000 mm 0.0 km/h
02:00 11.3 °C 6.4 °C 11.3 °C 72% 1017.4 hPa 0 W/m² 0.0 mm 0.026 mm 0.0 km/h
02:05 11.3 °C 6.6 °C 11.3 °C 73% 1017.5 hPa 0 W/m² 0.0 mm 0.000 mm 0.0 km/h
02:10 11.2 °C 6.5 °C 11.2 °C 73% 1017.5 hPa 0 W/m² 0.0 mm 0.000 mm 0.0 km/h
02:15 11.1 °C 6.6 °C 11.1 °C 74% 1017.5 hPa 0 W/m² 0.0 mm 0.000 mm 0.0 km/h
02:20 11.0 °C 6.5 °C 11.0 °C 74% 1017.4 hPa 0 W/m² 0.0 mm 0.000 mm 0.0 km/h
02:25 10.8 °C 6.4 °C 10.8 °C 74% 1017.4 hPa 0 W/m² 0.0 mm 0.000 mm 0.0 km/h
02:30 10.7 °C 6.5 °C 10.7 °C 75% 1017.5 hPa 0 W/m² 0.0 mm 0.000 mm 0.0 km/h
02:35 10.6 °C 6.4 °C 10.6 °C 75% 1017.4 hPa 0 W/m² 0.0 mm 0.000 mm 0.0 km/h
02:40 10.5 °C 6.3 °C 10.5 °C 75% 1017.5 hPa 0 W/m² 0.0 mm 0.000 mm 0.0 km/h
02:45 10.3 °C 6.3 °C 10.3 °C 76% 1017.4 hPa 0 W/m² 0.0 mm 0.000 mm 0.0 km/h
02:50 10.2 °C 6.2 °C 10.2 °C 76% 1017.4 hPa 0 W/m² 0.0 mm 0.000 mm 0.0 km/h
02:55 10.1 °C 6.3 °C 10.1 °C 77% 1017.4 hPa 0 W/m² 0.0 mm 0.000 mm 0.0 km/h
03:00 9.9 °C 6.2 °C 9.9 °C 78% 1017.3 hPa 0 W/m² 0.0 mm 0.025 mm 0.0 km/h
03:05 9.9 °C 6.2 °C 9.9 °C 78% 1017.3 hPa 0 W/m² 0.0 mm 0.000 mm 0.0 km/h
03:10 9.8 °C 6.0 °C 9.8 °C 77% 1017.3 hPa 0 W/m² 0.0 mm 0.000 mm 0.0 km/h
03:15 9.6 °C 6.0 °C 9.6 °C 78% 1017.2 hPa 0 W/m² 0.0 mm 0.000 mm 0.0 km/h
03:20 9.4 °C 5.8 °C 9.4 °C 78% 1017.2 hPa 0 W/m² 0.0 mm 0.000 mm 0.0 km/h